sensor_id;sensor_type;location;lat;lon;timestamp;P1;durP1;ratioP1;P2;durP2;ratioP2
74892;SDS011;63446;56.272;43.922;2022-12-07T00:01:33;12.70;;;3.67;;
74892;SDS011;63446;56.272;43.922;2022-12-07T00:03:53;13.37;;;3.33;;
74892;SDS011;63446;56.272;43.922;2022-12-07T00:06:22;10.27;;;3.15;;
74892;SDS011;63446;56.272;43.922;2022-12-07T00:08:48;9.45;;;3.13;;
74892;SDS011;63446;56.272;43.922;2022-12-07T00:11:15;10.07;;;3.30;;
74892;SDS011;63446;56.272;43.922;2022-12-07T00:13:42;9.60;;;3.00;;
74892;SDS011;63446;56.272;43.922;2022-12-07T00:16:10;9.57;;;3.30;;
74892;SDS011;63446;56.272;43.922;2022-12-07T00:18:38;9.40;;;3.55;;
74892;SDS011;63446;56.272;43.922;2022-12-07T00:21:07;11.23;;;3.22;;
74892;SDS011;63446;56.272;43.922;2022-12-07T00:23:40;9.47;;;3.67;;
74892;SDS011;63446;56.272;43.922;2022-12-07T00:26:07;9.05;;;3.42;;
74892;SDS011;63446;56.272;43.922;2022-12-07T00:28:34;10.65;;;3.30;;
74892;SDS011;63446;56.272;43.922;2022-12-07T00:31:08;8.43;;;3.05;;
74892;SDS011;63446;56.272;43.922;2022-12-07T00:33:35;11.95;;;3.88;;
74892;SDS011;63446;56.272;43.922;2022-12-07T00:36:05;10.43;;;4.07;;
74892;SDS011;63446;56.272;43.922;2022-12-07T00:38:33;11.70;;;3.65;;
74892;SDS011;63446;56.272;43.922;2022-12-07T00:41:01;12.50;;;3.67;;
74892;SDS011;63446;56.272;43.922;2022-12-07T00:43:29;10.27;;;3.45;;
74892;SDS011;63446;56.272;43.922;2022-12-07T00:45:55;16.45;;;3.80;;
74892;SDS011;63446;56.272;43.922;2022-12-07T00:48:22;11.63;;;3.73;;
74892;SDS011;63446;56.272;43.922;2022-12-07T00:50:48;10.93;;;3.55;;
74892;SDS011;63446;56.272;43.922;2022-12-07T00:53:15;13.68;;;3.75;;
74892;SDS011;63446;56.272;43.922;2022-12-07T00:55:41;9.10;;;3.60;;
74892;SDS011;63446;56.272;43.922;2022-12-07T00:58:08;9.27;;;3.30;;
74892;SDS011;63446;56.272;43.922;2022-12-07T01:00:35;10.43;;;2.83;;
74892;SDS011;63446;56.272;43.922;2022-12-07T01:03:03;11.40;;;3.28;;
74892;SDS011;63446;56.272;43.922;2022-12-07T01:05:30;10.38;;;3.88;;
74892;SDS011;63446;56.272;43.922;2022-12-07T01:07:56;12.25;;;3.80;;
74892;SDS011;63446;56.272;43.922;2022-12-07T01:10:22;12.30;;;3.43;;
74892;SDS011;63446;56.272;43.922;2022-12-07T01:12:48;14.02;;;3.40;;
74892;SDS011;63446;56.272;43.922;2022-12-07T01:15:14;8.87;;;3.23;;
74892;SDS011;63446;56.272;43.922;2022-12-07T01:17:40;11.95;;;3.33;;
74892;SDS011;63446;56.272;43.922;2022-12-07T01:20:06;12.55;;;3.78;;
74892;SDS011;63446;56.272;43.922;2022-12-07T01:22:37;13.00;;;3.10;;
74892;SDS011;63446;56.272;43.922;2022-12-07T01:25:04;10.33;;;3.10;;
74892;SDS011;63446;56.272;43.922;2022-12-07T01:27:32;11.23;;;3.15;;
74892;SDS011;63446;56.272;43.922;2022-12-07T01:29:58;11.05;;;3.13;;
74892;SDS011;63446;56.272;43.922;2022-12-07T01:32:24;9.85;;;3.70;;
74892;SDS011;63446;56.272;43.922;2022-12-07T01:34:50;11.83;;;3.40;;
74892;SDS011;63446;56.272;43.922;2022-12-07T01:37:16;9.88;;;3.83;;
74892;SDS011;63446;56.272;43.922;2022-12-07T01:39:42;13.00;;;2.87;;
74892;SDS011;63446;56.272;43.922;2022-12-07T01:42:11;12.32;;;3.53;;
74892;SDS011;63446;56.272;43.922;2022-12-07T01:47:50;11.52;;;3.05;;
74892;SDS011;63446;56.272;43.922;2022-12-07T01:50:19;10.18;;;3.17;;
74892;SDS011;63446;56.272;43.922;2022-12-07T01:52:47;10.07;;;3.50;;
74892;SDS011;63446;56.272;43.922;2022-12-07T01:55:16;11.07;;;3.50;;
74892;SDS011;63446;56.272;43.922;2022-12-07T01:57:47;9.85;;;3.50;;
74892;SDS011;63446;56.272;43.922;2022-12-07T02:00:16;11.25;;;3.47;;
74892;SDS011;63446;56.272;43.922;2022-12-07T02:05:11;11.63;;;3.83;;
74892;SDS011;63446;56.272;43.922;2022-12-07T02:07:39;11.15;;;3.38;;
74892;SDS011;63446;56.272;43.922;2022-12-07T02:10:12;8.95;;;3.35;;
74892;SDS011;63446;56.272;43.922;2022-12-07T02:12:41;11.25;;;3.45;;
74892;SDS011;63446;56.272;43.922;2022-12-07T02:16:31;9.70;;;3.42;;
74892;SDS011;63446;56.272;43.922;2022-12-07T02:21:33;9.23;;;3.17;;
74892;SDS011;63446;56.272;43.922;2022-12-07T02:26:47;12.48;;;3.35;;
74892;SDS011;63446;56.272;43.922;2022-12-07T02:29:25;11.27;;;3.60;;
74892;SDS011;63446;56.272;43.922;2022-12-07T02:37:29;14.07;;;3.88;;
74892;SDS011;63446;56.272;43.922;2022-12-07T02:39:59;9.93;;;3.00;;
74892;SDS011;63446;56.272;43.922;2022-12-07T02:42:36;10.85;;;3.40;;
74892;SDS011;63446;56.272;43.922;2022-12-07T02:45:06;12.02;;;3.85;;
74892;SDS011;63446;56.272;43.922;2022-12-07T02:47:33;9.18;;;3.38;;
74892;SDS011;63446;56.272;43.922;2022-12-07T02:50:02;10.27;;;3.58;;
74892;SDS011;63446;56.272;43.922;2022-12-07T02:52:31;13.40;;;3.70;;
74892;SDS011;63446;56.272;43.922;2022-12-07T02:54:57;10.35;;;3.60;;
74892;SDS011;63446;56.272;43.922;2022-12-07T03:00:16;12.00;;;3.80;;
74892;SDS011;63446;56.272;43.922;2022-12-07T03:07:51;10.60;;;3.50;;
74892;SDS011;63446;56.272;43.922;2022-12-07T03:13:35;13.68;;;3.90;;
74892;SDS011;63446;56.272;43.922;2022-12-07T03:21:26;14.07;;;4.20;;
74892;SDS011;63446;56.272;43.922;2022-12-07T03:23:56;12.75;;;3.60;;
74892;SDS011;63446;56.272;43.922;2022-12-07T03:26:31;12.75;;;4.13;;
74892;SDS011;63446;56.272;43.922;2022-12-07T03:29:08;12.15;;;3.88;;
74892;SDS011;63446;56.272;43.922;2022-12-07T03:31:48;12.70;;;4.13;;
74892;SDS011;63446;56.272;43.922;2022-12-07T03:34:24;14.48;;;3.42;;
74892;SDS011;63446;56.272;43.922;2022-12-07T03:37:04;11.38;;;3.60;;
74892;SDS011;63446;56.272;43.922;2022-12-07T03:39:37;15.60;;;3.65;;
74892;SDS011;63446;56.272;43.922;2022-12-07T03:42:07;12.05;;;3.42;;
74892;SDS011;63446;56.272;43.922;2022-12-07T03:44:35;11.17;;;3.80;;
74892;SDS011;63446;56.272;43.922;2022-12-07T03:47:45;13.23;;;4.75;;
74892;SDS011;63446;56.272;43.922;2022-12-07T03:49:51;13.23;;;4.55;;
74892;SDS011;63446;56.272;43.922;2022-12-07T03:52:35;16.92;;;5.07;;
74892;SDS011;63446;56.272;43.922;2022-12-07T03:55:18;14.50;;;4.53;;
74892;SDS011;63446;56.272;43.922;2022-12-07T03:57:46;13.63;;;4.60;;
74892;SDS011;63446;56.272;43.922;2022-12-07T04:00:14;19.80;;;5.05;;
74892;SDS011;63446;56.272;43.922;2022-12-07T04:02:40;15.13;;;4.70;;
74892;SDS011;63446;56.272;43.922;2022-12-07T04:05:08;14.32;;;4.88;;
74892;SDS011;63446;56.272;43.922;2022-12-07T04:07:34;17.00;;;5.07;;
74892;SDS011;63446;56.272;43.922;2022-12-07T04:10:00;15.35;;;5.03;;
74892;SDS011;63446;56.272;43.922;2022-12-07T04:12:26;14.55;;;4.28;;
74892;SDS011;63446;56.272;43.922;2022-12-07T04:14:52;13.77;;;4.47;;
74892;SDS011;63446;56.272;43.922;2022-12-07T04:17:18;15.38;;;4.50;;
74892;SDS011;63446;56.272;43.922;2022-12-07T04:19:44;15.57;;;5.03;;
74892;SDS011;63446;56.272;43.922;2022-12-07T04:22:10;13.82;;;4.88;;
74892;SDS011;63446;56.272;43.922;2022-12-07T04:24:36;14.23;;;3.88;;
74892;SDS011;63446;56.272;43.922;2022-12-07T04:27:01;14.17;;;4.03;;
74892;SDS011;63446;56.272;43.922;2022-12-07T04:29:28;15.10;;;4.40;;
74892;SDS011;63446;56.272;43.922;2022-12-07T04:31:56;11.57;;;3.77;;
74892;SDS011;63446;56.272;43.922;2022-12-07T04:34:22;15.75;;;4.25;;
74892;SDS011;63446;56.272;43.922;2022-12-07T04:36:49;17.55;;;4.53;;
74892;SDS011;63446;56.272;43.922;2022-12-07T04:39:19;18.70;;;3.97;;
74892;SDS011;63446;56.272;43.922;2022-12-07T04:41:58;15.03;;;4.30;;
74892;SDS011;63446;56.272;43.922;2022-12-07T04:44:25;13.68;;;4.80;;
74892;SDS011;63446;56.272;43.922;2022-12-07T04:46:53;11.63;;;4.15;;
74892;SDS011;63446;56.272;43.922;2022-12-07T04:49:19;15.25;;;4.03;;
74892;SDS011;63446;56.272;43.922;2022-12-07T04:51:47;15.10;;;4.70;;
74892;SDS011;63446;56.272;43.922;2022-12-07T04:54:14;12.00;;;4.20;;
74892;SDS011;63446;56.272;43.922;2022-12-07T04:56:40;18.02;;;5.70;;
74892;SDS011;63446;56.272;43.922;2022-12-07T04:59:07;14.52;;;4.47;;
74892;SDS011;63446;56.272;43.922;2022-12-07T05:01:33;14.18;;;4.53;;
74892;SDS011;63446;56.272;43.922;2022-12-07T05:04:00;11.27;;;4.03;;
74892;SDS011;63446;56.272;43.922;2022-12-07T05:06:26;13.90;;;4.15;;
74892;SDS011;63446;56.272;43.922;2022-12-07T05:08:52;14.85;;;4.85;;
74892;SDS011;63446;56.272;43.922;2022-12-07T05:11:19;23.13;;;5.95;;
74892;SDS011;63446;56.272;43.922;2022-12-07T05:14:05;19.83;;;5.60;;
74892;SDS011;63446;56.272;43.922;2022-12-07T05:16:41;17.53;;;5.37;;
74892;SDS011;63446;56.272;43.922;2022-12-07T05:19:08;15.55;;;5.00;;
74892;SDS011;63446;56.272;43.922;2022-12-07T05:21:34;15.93;;;5.00;;
74892;SDS011;63446;56.272;43.922;2022-12-07T05:24:02;16.00;;;5.22;;
74892;SDS011;63446;56.272;43.922;2022-12-07T05:26:28;11.40;;;4.38;;
74892;SDS011;63446;56.272;43.922;2022-12-07T05:28:55;18.77;;;5.53;;
74892;SDS011;63446;56.272;43.922;2022-12-07T05:31:22;15.70;;;4.80;;
74892;SDS011;63446;56.272;43.922;2022-12-07T05:33:48;13.35;;;4.88;;
74892;SDS011;63446;56.272;43.922;2022-12-07T05:36:14;15.48;;;4.65;;
74892;SDS011;63446;56.272;43.922;2022-12-07T05:38:41;17.83;;;5.27;;
74892;SDS011;63446;56.272;43.922;2022-12-07T05:41:07;18.50;;;5.70;;
74892;SDS011;63446;56.272;43.922;2022-12-07T05:43:54;15.65;;;4.78;;
74892;SDS011;63446;56.272;43.922;2022-12-07T05:46:22;17.45;;;4.68;;
74892;SDS011;63446;56.272;43.922;2022-12-07T05:48:47;17.57;;;4.57;;
74892;SDS011;63446;56.272;43.922;2022-12-07T05:51:13;15.05;;;5.15;;
74892;SDS011;63446;56.272;43.922;2022-12-07T05:53:39;12.27;;;4.33;;
74892;SDS011;63446;56.272;43.922;2022-12-07T05:56:04;12.37;;;4.27;;
74892;SDS011;63446;56.272;43.922;2022-12-07T05:58:30;13.95;;;4.78;;
74892;SDS011;63446;56.272;43.922;2022-12-07T06:01:15;13.82;;;4.15;;
74892;SDS011;63446;56.272;43.922;2022-12-07T06:03:40;15.05;;;4.28;;
74892;SDS011;63446;56.272;43.922;2022-12-07T06:06:07;15.93;;;4.60;;
74892;SDS011;63446;56.272;43.922;2022-12-07T06:08:32;22.25;;;4.97;;
74892;SDS011;63446;56.272;43.922;2022-12-07T06:10:58;14.67;;;4.70;;
74892;SDS011;63446;56.272;43.922;2022-12-07T06:13:43;13.18;;;4.28;;
74892;SDS011;63446;56.272;43.922;2022-12-07T06:16:08;14.65;;;4.68;;
74892;SDS011;63446;56.272;43.922;2022-12-07T06:18:34;12.95;;;4.35;;
74892;SDS011;63446;56.272;43.922;2022-12-07T06:21:00;18.63;;;4.70;;
74892;SDS011;63446;56.272;43.922;2022-12-07T06:23:26;17.95;;;5.45;;
74892;SDS011;63446;56.272;43.922;2022-12-07T06:25:52;18.60;;;4.82;;
74892;SDS011;63446;56.272;43.922;2022-12-07T06:28:17;15.57;;;4.53;;
74892;SDS011;63446;56.272;43.922;2022-12-07T06:30:43;17.50;;;5.40;;
74892;SDS011;63446;56.272;43.922;2022-12-07T06:33:09;11.93;;;4.45;;
74892;SDS011;63446;56.272;43.922;2022-12-07T06:35:35;14.63;;;4.18;;
74892;SDS011;63446;56.272;43.922;2022-12-07T06:38:00;16.67;;;4.50;;
74892;SDS011;63446;56.272;43.922;2022-12-07T06:40:26;13.33;;;4.47;;
74892;SDS011;63446;56.272;43.922;2022-12-07T06:42:52;12.48;;;4.63;;
74892;SDS011;63446;56.272;43.922;2022-12-07T06:45:18;16.30;;;5.75;;
74892;SDS011;63446;56.272;43.922;2022-12-07T06:47:44;15.57;;;4.43;;
74892;SDS011;63446;56.272;43.922;2022-12-07T06:50:10;18.27;;;5.23;;
74892;SDS011;63446;56.272;43.922;2022-12-07T06:52:35;13.65;;;5.13;;
74892;SDS011;63446;56.272;43.922;2022-12-07T06:55:01;15.48;;;4.63;;
74892;SDS011;63446;56.272;43.922;2022-12-07T06:57:28;20.30;;;5.00;;
74892;SDS011;63446;56.272;43.922;2022-12-07T06:59:54;16.03;;;5.27;;
74892;SDS011;63446;56.272;43.922;2022-12-07T07:02:20;17.33;;;5.78;;
74892;SDS011;63446;56.272;43.922;2022-12-07T07:04:45;15.52;;;4.90;;
74892;SDS011;63446;56.272;43.922;2022-12-07T07:07:11;17.77;;;5.23;;
74892;SDS011;63446;56.272;43.922;2022-12-07T07:09:38;15.52;;;5.50;;
74892;SDS011;63446;56.272;43.922;2022-12-07T07:12:04;16.30;;;4.72;;
74892;SDS011;63446;56.272;43.922;2022-12-07T07:14:29;18.20;;;5.37;;
74892;SDS011;63446;56.272;43.922;2022-12-07T07:16:56;15.23;;;5.47;;
74892;SDS011;63446;56.272;43.922;2022-12-07T07:19:21;17.17;;;5.28;;
74892;SDS011;63446;56.272;43.922;2022-12-07T07:21:47;16.52;;;4.95;;
74892;SDS011;63446;56.272;43.922;2022-12-07T07:24:13;15.00;;;4.67;;
74892;SDS011;63446;56.272;43.922;2022-12-07T07:26:39;18.70;;;5.28;;
74892;SDS011;63446;56.272;43.922;2022-12-07T07:29:05;14.57;;;5.20;;
74892;SDS011;63446;56.272;43.922;2022-12-07T07:31:32;17.98;;;5.35;;
74892;SDS011;63446;56.272;43.922;2022-12-07T07:34:00;17.50;;;4.83;;
74892;SDS011;63446;56.272;43.922;2022-12-07T07:36:26;16.15;;;4.93;;
74892;SDS011;63446;56.272;43.922;2022-12-07T07:38:52;16.30;;;4.78;;
74892;SDS011;63446;56.272;43.922;2022-12-07T07:41:17;15.70;;;4.93;;
74892;SDS011;63446;56.272;43.922;2022-12-07T07:43:44;18.02;;;4.93;;
74892;SDS011;63446;56.272;43.922;2022-12-07T07:46:10;15.57;;;5.07;;
74892;SDS011;63446;56.272;43.922;2022-12-07T07:48:36;19.07;;;5.47;;
74892;SDS011;63446;56.272;43.922;2022-12-07T07:51:06;14.52;;;4.90;;
74892;SDS011;63446;56.272;43.922;2022-12-07T07:53:32;16.05;;;5.05;;
74892;SDS011;63446;56.272;43.922;2022-12-07T07:55:59;14.57;;;5.15;;
74892;SDS011;63446;56.272;43.922;2022-12-07T07:58:25;18.40;;;5.57;;
74892;SDS011;63446;56.272;43.922;2022-12-07T08:00:52;20.85;;;6.07;;
74892;SDS011;63446;56.272;43.922;2022-12-07T08:03:18;21.45;;;5.45;;
74892;SDS011;63446;56.272;43.922;2022-12-07T08:05:44;19.30;;;5.87;;
74892;SDS011;63446;56.272;43.922;2022-12-07T08:08:10;16.48;;;4.90;;
74892;SDS011;63446;56.272;43.922;2022-12-07T08:10:37;16.83;;;5.60;;
74892;SDS011;63446;56.272;43.922;2022-12-07T08:13:04;18.83;;;5.82;;
74892;SDS011;63446;56.272;43.922;2022-12-07T08:15:36;19.42;;;6.28;;
74892;SDS011;63446;56.272;43.922;2022-12-07T08:18:03;15.90;;;5.13;;
74892;SDS011;63446;56.272;43.922;2022-12-07T08:20:30;18.95;;;5.85;;
74892;SDS011;63446;56.272;43.922;2022-12-07T08:22:59;17.35;;;5.80;;
74892;SDS011;63446;56.272;43.922;2022-12-07T08:25:25;21.80;;;5.60;;
74892;SDS011;63446;56.272;43.922;2022-12-07T08:27:52;16.52;;;5.45;;
74892;SDS011;63446;56.272;43.922;2022-12-07T08:30:18;22.30;;;6.20;;
74892;SDS011;63446;56.272;43.922;2022-12-07T08:32:45;19.52;;;5.82;;
74892;SDS011;63446;56.272;43.922;2022-12-07T08:35:11;19.52;;;6.05;;
74892;SDS011;63446;56.272;43.922;2022-12-07T08:37:38;15.60;;;5.55;;
74892;SDS011;63446;56.272;43.922;2022-12-07T08:40:06;18.27;;;5.33;;
74892;SDS011;63446;56.272;43.922;2022-12-07T08:42:33;14.93;;;4.68;;
74892;SDS011;63446;56.272;43.922;2022-12-07T08:47:38;17.73;;;5.75;;
74892;SDS011;63446;56.272;43.922;2022-12-07T08:50:07;18.55;;;5.30;;
74892;SDS011;63446;56.272;43.922;2022-12-07T08:52:35;17.57;;;5.67;;
74892;SDS011;63446;56.272;43.922;2022-12-07T08:55:02;18.73;;;6.05;;
74892;SDS011;63446;56.272;43.922;2022-12-07T08:57:30;18.33;;;6.05;;
74892;SDS011;63446;56.272;43.922;2022-12-07T08:59:58;24.40;;;7.20;;
74892;SDS011;63446;56.272;43.922;2022-12-07T09:02:23;22.27;;;5.90;;
74892;SDS011;63446;56.272;43.922;2022-12-07T09:04:50;20.55;;;5.75;;
74892;SDS011;63446;56.272;43.922;2022-12-07T09:07:16;23.77;;;6.93;;
74892;SDS011;63446;56.272;43.922;2022-12-07T09:09:42;18.63;;;5.45;;
74892;SDS011;63446;56.272;43.922;2022-12-07T09:12:08;17.45;;;5.28;;
74892;SDS011;63446;56.272;43.922;2022-12-07T09:14:34;14.30;;;5.07;;
74892;SDS011;63446;56.272;43.922;2022-12-07T09:17:10;20.13;;;5.25;;
74892;SDS011;63446;56.272;43.922;2022-12-07T09:19:37;16.52;;;5.07;;
74892;SDS011;63446;56.272;43.922;2022-12-07T09:22:04;19.05;;;5.57;;
74892;SDS011;63446;56.272;43.922;2022-12-07T09:24:32;19.00;;;5.47;;
74892;SDS011;63446;56.272;43.922;2022-12-07T09:26:58;17.73;;;5.68;;
74892;SDS011;63446;56.272;43.922;2022-12-07T09:29:24;17.67;;;5.03;;
74892;SDS011;63446;56.272;43.922;2022-12-07T09:31:51;17.90;;;5.00;;
74892;SDS011;63446;56.272;43.922;2022-12-07T09:34:17;19.17;;;4.63;;
74892;SDS011;63446;56.272;43.922;2022-12-07T09:36:43;15.45;;;5.20;;
74892;SDS011;63446;56.272;43.922;2022-12-07T09:39:09;19.25;;;5.82;;
74892;SDS011;63446;56.272;43.922;2022-12-07T09:41:38;17.83;;;5.00;;
74892;SDS011;63446;56.272;43.922;2022-12-07T09:44:14;16.45;;;5.22;;
74892;SDS011;63446;56.272;43.922;2022-12-07T09:46:46;16.33;;;5.10;;
74892;SDS011;63446;56.272;43.922;2022-12-07T09:49:13;17.27;;;5.05;;
74892;SDS011;63446;56.272;43.922;2022-12-07T09:51:42;15.83;;;4.87;;
74892;SDS011;63446;56.272;43.922;2022-12-07T09:54:08;17.10;;;5.15;;
74892;SDS011;63446;56.272;43.922;2022-12-07T09:56:37;17.58;;;5.03;;
74892;SDS011;63446;56.272;43.922;2022-12-07T09:59:04;13.63;;;4.40;;
74892;SDS011;63446;56.272;43.922;2022-12-07T10:01:31;19.77;;;5.07;;
74892;SDS011;63446;56.272;43.922;2022-12-07T10:06:38;16.75;;;4.65;;
74892;SDS011;63446;56.272;43.922;2022-12-07T10:09:22;18.17;;;5.75;;
74892;SDS011;63446;56.272;43.922;2022-12-07T10:11:57;15.10;;;4.72;;
74892;SDS011;63446;56.272;43.922;2022-12-07T10:14:38;13.17;;;4.43;;
74892;SDS011;63446;56.272;43.922;2022-12-07T10:20:18;16.55;;;5.32;;
74892;SDS011;63446;56.272;43.922;2022-12-07T10:25:20;12.93;;;4.38;;
74892;SDS011;63446;56.272;43.922;2022-12-07T10:28:00;13.90;;;4.73;;
74892;SDS011;63446;56.272;43.922;2022-12-07T10:30:30;16.90;;;5.65;;
74892;SDS011;63446;56.272;43.922;2022-12-07T10:32:57;15.80;;;5.28;;
74892;SDS011;63446;56.272;43.922;2022-12-07T10:35:28;12.00;;;4.40;;
74892;SDS011;63446;56.272;43.922;2022-12-07T10:37:56;14.10;;;4.50;;
74892;SDS011;63446;56.272;43.922;2022-12-07T11:05:39;16.23;;;4.87;;
74892;SDS011;63446;56.272;43.922;2022-12-07T11:13:52;19.63;;;4.60;;
74892;SDS011;63446;56.272;43.922;2022-12-07T11:27:22;15.52;;;4.47;;
74892;SDS011;63446;56.272;43.922;2022-12-07T11:30:00;14.13;;;4.38;;
74892;SDS011;63446;56.272;43.922;2022-12-07T11:38:07;13.10;;;4.23;;
74892;SDS011;63446;56.272;43.922;2022-12-07T11:41:00;12.05;;;4.93;;
74892;SDS011;63446;56.272;43.922;2022-12-07T11:43:45;14.07;;;4.43;;
74892;SDS011;63446;56.272;43.922;2022-12-07T11:52:20;14.93;;;4.90;;
74892;SDS011;63446;56.272;43.922;2022-12-07T11:54:54;12.55;;;4.38;;
74892;SDS011;63446;56.272;43.922;2022-12-07T11:57:33;18.17;;;4.55;;
74892;SDS011;63446;56.272;43.922;2022-12-07T12:00:06;14.90;;;4.63;;
74892;SDS011;63446;56.272;43.922;2022-12-07T12:02:41;13.48;;;4.95;;
74892;SDS011;63446;56.272;43.922;2022-12-07T12:07:50;14.10;;;4.68;;
74892;SDS011;63446;56.272;43.922;2022-12-07T12:10:30;15.45;;;4.57;;
74892;SDS011;63446;56.272;43.922;2022-12-07T12:13:19;14.82;;;4.93;;
74892;SDS011;63446;56.272;43.922;2022-12-07T12:21:31;12.75;;;4.07;;
74892;SDS011;63446;56.272;43.922;2022-12-07T12:26:52;16.15;;;5.20;;
74892;SDS011;63446;56.272;43.922;2022-12-07T12:29:33;19.10;;;6.25;;
74892;SDS011;63446;56.272;43.922;2022-12-07T12:32:36;20.07;;;5.43;;
74892;SDS011;63446;56.272;43.922;2022-12-07T12:37:55;16.33;;;5.30;;
74892;SDS011;63446;56.272;43.922;2022-12-07T12:40:54;16.73;;;5.63;;
74892;SDS011;63446;56.272;43.922;2022-12-07T12:46:36;23.37;;;5.93;;
74892;SDS011;63446;56.272;43.922;2022-12-07T12:51:43;16.73;;;4.93;;
74892;SDS011;63446;56.272;43.922;2022-12-07T12:54:19;15.30;;;4.47;;
74892;SDS011;63446;56.272;43.922;2022-12-07T12:59:41;18.27;;;5.37;;
74892;SDS011;63446;56.272;43.922;2022-12-07T13:10:31;15.10;;;4.90;;
74892;SDS011;63446;56.272;43.922;2022-12-07T13:34:32;19.17;;;6.30;;
74892;SDS011;63446;56.272;43.922;2022-12-07T13:37:02;20.98;;;5.65;;
74892;SDS011;63446;56.272;43.922;2022-12-07T13:39:44;18.33;;;5.53;;
74892;SDS011;63446;56.272;43.922;2022-12-07T13:42:33;21.50;;;5.03;;
74892;SDS011;63446;56.272;43.922;2022-12-07T13:45:01;18.15;;;5.65;;
74892;SDS011;63446;56.272;43.922;2022-12-07T13:47:49;17.55;;;5.60;;
74892;SDS011;63446;56.272;43.922;2022-12-07T13:53:00;16.27;;;5.10;;
74892;SDS011;63446;56.272;43.922;2022-12-07T13:55:27;19.08;;;5.75;;
74892;SDS011;63446;56.272;43.922;2022-12-07T13:57:54;16.67;;;6.05;;
74892;SDS011;63446;56.272;43.922;2022-12-07T14:00:25;15.35;;;5.75;;
74892;SDS011;63446;56.272;43.922;2022-12-07T14:02:58;16.67;;;6.00;;
74892;SDS011;63446;56.272;43.922;2022-12-07T14:06:02;17.47;;;6.13;;
74892;SDS011;63446;56.272;43.922;2022-12-07T14:08:37;16.20;;;5.25;;
74892;SDS011;63446;56.272;43.922;2022-12-07T14:11:04;17.15;;;6.13;;
74892;SDS011;63446;56.272;43.922;2022-12-07T14:13:31;22.60;;;6.13;;
74892;SDS011;63446;56.272;43.922;2022-12-07T14:19:02;19.90;;;5.87;;
74892;SDS011;63446;56.272;43.922;2022-12-07T14:21:31;18.42;;;6.47;;
74892;SDS011;63446;56.272;43.922;2022-12-07T14:24:09;15.52;;;5.68;;
74892;SDS011;63446;56.272;43.922;2022-12-07T14:26:35;18.88;;;5.30;;
74892;SDS011;63446;56.272;43.922;2022-12-07T14:29:22;15.80;;;5.75;;
74892;SDS011;63446;56.272;43.922;2022-12-07T14:31:52;15.87;;;5.07;;
74892;SDS011;63446;56.272;43.922;2022-12-07T14:34:22;15.88;;;5.68;;
74892;SDS011;63446;56.272;43.922;2022-12-07T14:36:49;15.50;;;6.18;;
74892;SDS011;63446;56.272;43.922;2022-12-07T14:39:15;14.98;;;4.72;;
74892;SDS011;63446;56.272;43.922;2022-12-07T14:41:41;18.10;;;5.20;;
74892;SDS011;63446;56.272;43.922;2022-12-07T14:44:16;16.67;;;5.35;;
74892;SDS011;63446;56.272;43.922;2022-12-07T14:46:44;16.17;;;5.78;;
74892;SDS011;63446;56.272;43.922;2022-12-07T14:49:10;21.80;;;5.80;;
74892;SDS011;63446;56.272;43.922;2022-12-07T14:51:36;21.50;;;5.37;;
74892;SDS011;63446;56.272;43.922;2022-12-07T14:54:06;14.93;;;5.07;;
74892;SDS011;63446;56.272;43.922;2022-12-07T14:56:42;16.15;;;6.22;;
74892;SDS011;63446;56.272;43.922;2022-12-07T14:59:09;19.67;;;5.82;;
74892;SDS011;63446;56.272;43.922;2022-12-07T15:01:37;19.73;;;6.47;;
74892;SDS011;63446;56.272;43.922;2022-12-07T15:04:03;14.13;;;4.82;;
74892;SDS011;63446;56.272;43.922;2022-12-07T15:06:30;19.83;;;5.75;;
74892;SDS011;63446;56.272;43.922;2022-12-07T15:08:55;16.60;;;4.80;;
74892;SDS011;63446;56.272;43.922;2022-12-07T15:11:21;14.98;;;5.10;;
74892;SDS011;63446;56.272;43.922;2022-12-07T15:13:48;18.13;;;5.32;;
74892;SDS011;63446;56.272;43.922;2022-12-07T15:16:33;19.80;;;5.57;;
74892;SDS011;63446;56.272;43.922;2022-12-07T15:18:59;12.35;;;4.07;;
74892;SDS011;63446;56.272;43.922;2022-12-07T15:21:25;18.25;;;5.35;;
74892;SDS011;63446;56.272;43.922;2022-12-07T15:23:50;21.67;;;5.50;;
74892;SDS011;63446;56.272;43.922;2022-12-07T15:26:17;16.67;;;5.15;;
74892;SDS011;63446;56.272;43.922;2022-12-07T15:28:43;18.17;;;5.88;;
74892;SDS011;63446;56.272;43.922;2022-12-07T15:31:12;17.40;;;5.23;;
74892;SDS011;63446;56.272;43.922;2022-12-07T15:33:39;15.73;;;5.05;;
74892;SDS011;63446;56.272;43.922;2022-12-07T15:36:05;15.68;;;5.32;;
74892;SDS011;63446;56.272;43.922;2022-12-07T15:38:31;13.23;;;4.67;;
74892;SDS011;63446;56.272;43.922;2022-12-07T15:40:57;15.38;;;5.20;;
74892;SDS011;63446;56.272;43.922;2022-12-07T15:43:25;16.02;;;4.93;;
74892;SDS011;63446;56.272;43.922;2022-12-07T15:46:09;16.20;;;5.20;;
74892;SDS011;63446;56.272;43.922;2022-12-07T15:48:35;11.77;;;4.65;;
74892;SDS011;63446;56.272;43.922;2022-12-07T15:51:04;15.75;;;5.47;;
74892;SDS011;63446;56.272;43.922;2022-12-07T15:53:35;21.23;;;6.30;;
74892;SDS011;63446;56.272;43.922;2022-12-07T15:56:01;16.38;;;5.13;;
74892;SDS011;63446;56.272;43.922;2022-12-07T15:58:27;17.60;;;5.20;;
74892;SDS011;63446;56.272;43.922;2022-12-07T16:00:53;15.52;;;5.22;;
74892;SDS011;63446;56.272;43.922;2022-12-07T16:03:19;16.97;;;5.20;;
74892;SDS011;63446;56.272;43.922;2022-12-07T16:05:51;18.60;;;5.88;;
74892;SDS011;63446;56.272;43.922;2022-12-07T16:08:18;18.63;;;6.38;;
74892;SDS011;63446;56.272;43.922;2022-12-07T16:10:44;20.23;;;5.63;;
74892;SDS011;63446;56.272;43.922;2022-12-07T16:13:11;17.45;;;5.85;;
74892;SDS011;63446;56.272;43.922;2022-12-07T16:15:41;17.05;;;5.50;;
74892;SDS011;63446;56.272;43.922;2022-12-07T16:18:08;18.33;;;5.30;;
74892;SDS011;63446;56.272;43.922;2022-12-07T16:20:34;18.38;;;6.07;;
74892;SDS011;63446;56.272;43.922;2022-12-07T16:23:00;18.67;;;5.07;;
74892;SDS011;63446;56.272;43.922;2022-12-07T16:25:26;21.02;;;6.30;;
74892;SDS011;63446;56.272;43.922;2022-12-07T16:27:52;21.83;;;6.30;;
74892;SDS011;63446;56.272;43.922;2022-12-07T16:30:18;20.83;;;6.05;;
74892;SDS011;63446;56.272;43.922;2022-12-07T16:32:44;20.83;;;5.97;;
74892;SDS011;63446;56.272;43.922;2022-12-07T16:35:11;23.27;;;6.57;;
74892;SDS011;63446;56.272;43.922;2022-12-07T16:37:38;18.45;;;6.53;;
74892;SDS011;63446;56.272;43.922;2022-12-07T16:40:06;24.08;;;6.53;;
74892;SDS011;63446;56.272;43.922;2022-12-07T16:42:33;21.02;;;6.32;;
74892;SDS011;63446;56.272;43.922;2022-12-07T16:45:01;22.45;;;7.57;;
74892;SDS011;63446;56.272;43.922;2022-12-07T16:47:27;16.03;;;4.90;;
74892;SDS011;63446;56.272;43.922;2022-12-07T16:49:53;18.73;;;5.47;;
74892;SDS011;63446;56.272;43.922;2022-12-07T16:52:19;20.92;;;6.32;;
74892;SDS011;63446;56.272;43.922;2022-12-07T16:54:46;21.17;;;6.40;;
74892;SDS011;63446;56.272;43.922;2022-12-07T16:57:13;21.23;;;6.20;;
74892;SDS011;63446;56.272;43.922;2022-12-07T16:59:38;18.17;;;6.10;;
74892;SDS011;63446;56.272;43.922;2022-12-07T17:02:04;18.93;;;5.13;;
74892;SDS011;63446;56.272;43.922;2022-12-07T17:04:32;21.00;;;6.57;;
74892;SDS011;63446;56.272;43.922;2022-12-07T17:06:58;21.08;;;6.65;;
74892;SDS011;63446;56.272;43.922;2022-12-07T17:09:24;23.80;;;7.20;;